createdAt,value
2023-02-13T00:00:06.371Z,0
2023-02-13T00:01:06.374Z,0
2023-02-13T00:02:06.406Z,0
2023-02-13T00:03:06.454Z,0
2023-02-13T00:04:06.387Z,0
2023-02-13T00:05:06.374Z,0
2023-02-13T00:06:06.377Z,0
2023-02-13T00:07:06.407Z,0
2023-02-13T00:08:06.378Z,0
2023-02-13T00:09:07.366Z,0
2023-02-13T00:10:06.381Z,0
2023-02-13T00:11:06.375Z,0
2023-02-13T00:12:06.380Z,0
2023-02-13T00:13:06.394Z,0
2023-02-13T00:14:06.383Z,0
2023-02-13T00:15:06.384Z,0
2023-02-13T00:16:06.491Z,0
2023-02-13T00:17:06.385Z,0
2023-02-13T00:18:06.389Z,0
2023-02-13T00:19:06.385Z,0
2023-02-13T00:20:06.386Z,0
2023-02-13T00:21:06.390Z,0
2023-02-13T00:22:06.394Z,0
2023-02-13T00:23:06.421Z,0
2023-02-13T00:24:06.404Z,0
2023-02-13T00:25:06.397Z,0
2023-02-13T00:26:06.398Z,0
2023-02-13T00:27:06.401Z,0
2023-02-13T00:28:06.433Z,0
2023-02-13T00:29:06.400Z,0
2023-02-13T00:30:06.398Z,0
2023-02-13T00:31:06.434Z,0
2023-02-13T00:32:06.492Z,0
2023-02-13T00:33:06.398Z,0
2023-02-13T00:34:06.396Z,0
2023-02-13T00:35:06.406Z,0
2023-02-13T00:36:06.399Z,0
2023-02-13T00:37:06.410Z,0
2023-02-13T00:38:06.399Z,0
2023-02-13T00:39:06.428Z,0
2023-02-13T00:40:06.400Z,0
2023-02-13T00:41:06.407Z,0
2023-02-13T00:42:06.415Z,0
2023-02-13T00:43:06.405Z,0
2023-02-13T00:44:06.404Z,0
2023-02-13T00:45:06.401Z,0
2023-02-13T00:46:06.454Z,0
2023-02-13T00:47:06.439Z,0
2023-02-13T00:48:06.407Z,0
2023-02-13T00:49:06.412Z,0
2023-02-13T00:50:06.419Z,0
2023-02-13T00:51:06.427Z,0
2023-02-13T00:52:06.412Z,0
2023-02-13T00:53:06.421Z,0
2023-02-13T00:54:06.415Z,0
2023-02-13T00:55:06.444Z,0
2023-02-13T00:56:06.417Z,0
2023-02-13T00:57:06.419Z,0
2023-02-13T00:58:06.462Z,0
2023-02-13T00:59:06.425Z,0
2023-02-13T01:00:06.436Z,0
2023-02-13T01:01:06.426Z,0
2023-02-13T01:02:06.425Z,0
2023-02-13T01:03:06.426Z,0
2023-02-13T01:04:06.440Z,0
2023-02-13T01:05:06.429Z,0
2023-02-13T01:06:06.442Z,0
2023-02-13T01:07:06.431Z,0
2023-02-13T01:08:06.429Z,0
2023-02-13T01:09:06.450Z,0
2023-02-13T01:10:06.434Z,0
2023-02-13T01:11:06.468Z,0
2023-02-13T01:12:06.437Z,0
2023-02-13T01:13:06.437Z,0
2023-02-13T01:14:06.431Z,0
2023-02-13T01:15:06.434Z,0
2023-02-13T01:16:06.530Z,0
2023-02-13T01:17:06.436Z,0
2023-02-13T01:18:06.443Z,0
2023-02-13T01:19:06.459Z,0
2023-02-13T01:20:06.442Z,0
2023-02-13T01:21:06.442Z,0
2023-02-13T01:22:06.445Z,0
2023-02-13T01:23:06.445Z,0
2023-02-13T01:24:06.469Z,0
2023-02-13T01:25:06.444Z,0
2023-02-13T01:26:06.450Z,0
2023-02-13T01:27:06.477Z,0
2023-02-13T01:28:06.495Z,0
2023-02-13T01:29:06.451Z,0
2023-02-13T01:30:06.448Z,0
2023-02-13T01:31:06.591Z,0
2023-02-13T01:32:06.523Z,0
2023-02-13T01:33:06.450Z,0
2023-02-13T01:34:06.453Z,0
2023-02-13T01:35:06.455Z,0
2023-02-13T01:36:06.455Z,0
2023-02-13T01:37:06.456Z,0
2023-02-13T01:38:06.450Z,0
2023-02-13T01:39:06.455Z,0
2023-02-13T01:40:06.454Z,0
2023-02-13T01:41:06.454Z,0
2023-02-13T01:42:06.455Z,0
2023-02-13T01:43:06.484Z,0
2023-02-13T01:44:06.457Z,0
2023-02-13T01:45:06.461Z,0
2023-02-13T01:46:06.524Z,0
2023-02-13T01:47:06.458Z,0
2023-02-13T01:48:06.464Z,0
2023-02-13T01:49:06.464Z,0
2023-02-13T01:50:06.461Z,0
2023-02-13T01:51:06.458Z,0
2023-02-13T01:52:06.454Z,0
2023-02-13T01:53:06.456Z,0
2023-02-13T01:54:06.459Z,0
2023-02-13T01:55:06.460Z,0
2023-02-13T01:56:06.463Z,0
2023-02-13T01:57:06.458Z,0
2023-02-13T01:58:06.462Z,0
2023-02-13T01:59:06.490Z,0
2023-02-13T02:00:06.464Z,0
2023-02-13T02:01:06.461Z,0
2023-02-13T02:02:06.580Z,0
2023-02-13T02:03:06.465Z,0
2023-02-13T02:04:06.464Z,0
2023-02-13T02:05:06.468Z,0
2023-02-13T02:06:06.464Z,0
2023-02-13T02:07:06.473Z,0
2023-02-13T02:08:06.465Z,0
2023-02-13T02:09:06.467Z,0
2023-02-13T02:10:06.466Z,0
2023-02-13T02:11:06.468Z,0
2023-02-13T02:12:06.470Z,0
2023-02-13T02:13:06.471Z,0
2023-02-13T02:14:06.472Z,0
2023-02-13T02:15:06.502Z,0
2023-02-13T02:16:06.540Z,0
2023-02-13T02:17:06.479Z,0
2023-02-13T02:18:06.474Z,0
2023-02-13T02:19:06.483Z,0
2023-02-13T02:20:06.479Z,0
2023-02-13T02:21:06.478Z,0
2023-02-13T02:22:06.478Z,0
2023-02-13T02:23:06.483Z,0
2023-02-13T02:24:06.481Z,0
2023-02-13T02:25:06.481Z,0
2023-02-13T02:26:06.480Z,0
2023-02-13T02:27:06.493Z,0
2023-02-13T02:28:06.513Z,0
2023-02-13T02:29:06.487Z,0
2023-02-13T02:30:06.490Z,0
2023-02-13T02:31:06.692Z,0
2023-02-13T02:32:06.486Z,0
2023-02-13T02:33:06.488Z,0
2023-02-13T02:34:06.486Z,0
2023-02-13T02:35:06.489Z,0
2023-02-13T02:36:06.490Z,0
2023-02-13T02:37:06.495Z,0
2023-02-13T02:38:06.490Z,0
2023-02-13T02:39:06.492Z,0
2023-02-13T02:40:06.489Z,0
2023-02-13T02:41:06.486Z,0
2023-02-13T02:42:06.489Z,0
2023-02-13T02:43:06.490Z,0
2023-02-13T02:44:06.489Z,0
2023-02-13T02:45:06.492Z,0
2023-02-13T02:46:06.495Z,0
2023-02-13T02:47:06.518Z,0
2023-02-13T02:48:06.491Z,0
2023-02-13T02:49:06.487Z,0
2023-02-13T02:50:06.490Z,0
2023-02-13T02:51:06.486Z,0
2023-02-13T02:52:06.487Z,0
2023-02-13T02:53:06.489Z,0
2023-02-13T02:54:06.486Z,0
2023-02-13T02:55:06.493Z,0
2023-02-13T02:56:06.485Z,0
2023-02-13T02:57:06.493Z,0
2023-02-13T02:58:06.488Z,0
2023-02-13T02:59:06.490Z,0
2023-02-13T03:00:06.491Z,0
2023-02-13T03:01:06.547Z,0
2023-02-13T03:02:06.490Z,0
2023-02-13T03:03:06.520Z,0
2023-02-13T03:04:06.589Z,0
2023-02-13T03:05:06.490Z,0
2023-02-13T03:06:06.491Z,0
2023-02-13T03:07:06.492Z,0
2023-02-13T03:08:06.491Z,0
2023-02-13T03:09:06.491Z,0
2023-02-13T03:10:06.491Z,0
2023-02-13T03:11:06.486Z,0
2023-02-13T03:12:06.502Z,0
2023-02-13T03:13:06.492Z,0
2023-02-13T03:14:06.499Z,0
2023-02-13T03:15:06.491Z,0
2023-02-13T03:16:06.514Z,0
2023-02-13T03:17:06.490Z,0
2023-02-13T03:18:06.492Z,0
2023-02-13T03:19:06.517Z,0
2023-02-13T03:20:06.488Z,0
2023-02-13T03:21:06.491Z,0
2023-02-13T03:22:06.493Z,0
2023-02-13T03:23:06.492Z,0
2023-02-13T03:24:06.493Z,0
2023-02-13T03:25:06.494Z,0
2023-02-13T03:26:06.502Z,0
2023-02-13T03:27:06.497Z,0
2023-02-13T03:28:06.620Z,0
2023-02-13T03:29:06.496Z,0
2023-02-13T03:30:06.498Z,0
2023-02-13T03:31:06.531Z,0
2023-02-13T03:32:06.498Z,0
2023-02-13T03:33:06.496Z,0
2023-02-13T03:34:06.503Z,0
2023-02-13T03:35:06.526Z,0
2023-02-13T03:36:06.494Z,0
2023-02-13T03:37:06.495Z,0
2023-02-13T03:38:06.498Z,0
2023-02-13T03:39:06.496Z,0
2023-02-13T03:40:06.497Z,0
2023-02-13T03:41:06.503Z,0
2023-02-13T03:42:06.497Z,0
2023-02-13T03:43:06.496Z,0
2023-02-13T03:44:06.496Z,0
2023-02-13T03:45:06.497Z,0
2023-02-13T03:46:06.573Z,0
2023-02-13T03:47:06.498Z,0
2023-02-13T03:48:06.496Z,0
2023-02-13T03:49:06.498Z,0
2023-02-13T03:50:06.504Z,0
2023-02-13T03:51:06.527Z,0
2023-02-13T03:52:06.499Z,0
2023-02-13T03:53:06.500Z,0
2023-02-13T03:54:06.499Z,0
2023-02-13T03:55:06.503Z,0
2023-02-13T03:56:06.503Z,0
2023-02-13T03:57:06.502Z,0
2023-02-13T03:58:06.504Z,0
2023-02-13T03:59:06.502Z,0
2023-02-13T04:00:06.504Z,0
2023-02-13T04:01:06.539Z,0
2023-02-13T04:02:06.511Z,0
2023-02-13T04:03:06.504Z,0
2023-02-13T04:04:06.513Z,0
2023-02-13T04:05:06.502Z,0
2023-02-13T04:06:06.532Z,0
2023-02-13T04:07:06.544Z,0
2023-02-13T04:08:06.510Z,0
2023-02-13T04:09:06.525Z,0
2023-02-13T04:10:06.511Z,0
2023-02-13T04:11:06.509Z,0
2023-02-13T04:12:06.508Z,0
2023-02-13T04:13:06.510Z,0
2023-02-13T04:14:06.512Z,0
2023-02-13T04:15:06.518Z,0
2023-02-13T04:16:06.510Z,0
2023-02-13T04:17:06.513Z,0
2023-02-13T04:18:06.525Z,0
2023-02-13T04:19:06.520Z,0
2023-02-13T04:20:06.511Z,0
2023-02-13T04:21:06.509Z,0
2023-02-13T04:22:06.511Z,0
2023-02-13T04:23:06.543Z,0
2023-02-13T04:24:06.526Z,0
2023-02-13T04:25:06.512Z,0
2023-02-13T04:26:06.511Z,0
2023-02-13T04:27:06.516Z,0
2023-02-13T04:28:06.526Z,0
2023-02-13T04:29:06.512Z,0
2023-02-13T04:30:06.514Z,0
2023-02-13T04:31:06.669Z,0
2023-02-13T04:32:06.518Z,0
2023-02-13T04:33:06.517Z,0
2023-02-13T04:34:06.519Z,0
2023-02-13T04:35:06.525Z,0
2023-02-13T04:36:06.518Z,0
2023-02-13T04:37:06.525Z,0
2023-02-13T04:38:06.526Z,0
2023-02-13T04:39:06.551Z,0
2023-02-13T04:40:06.529Z,0
2023-02-13T04:41:06.524Z,0
2023-02-13T04:42:06.519Z,0
2023-02-13T04:43:06.527Z,0
2023-02-13T04:44:06.523Z,0
2023-02-13T04:45:06.541Z,0
2023-02-13T04:46:06.676Z,0
2023-02-13T04:47:06.522Z,0
2023-02-13T04:48:06.521Z,0
2023-02-13T04:49:06.529Z,0
2023-02-13T04:50:06.527Z,0
2023-02-13T04:51:06.519Z,0
2023-02-13T04:52:06.524Z,0
2023-02-13T04:53:06.524Z,0
2023-02-13T04:54:06.536Z,0
2023-02-13T04:55:06.558Z,0
2023-02-13T04:56:06.530Z,0
2023-02-13T04:57:06.530Z,0
2023-02-13T04:58:06.544Z,0
2023-02-13T04:59:06.532Z,0
2023-02-13T05:00:06.526Z,0
2023-02-13T05:01:06.622Z,0
2023-02-13T05:02:06.527Z,0
2023-02-13T05:03:06.533Z,0
2023-02-13T05:04:06.558Z,0
2023-02-13T05:05:06.527Z,0
2023-02-13T05:06:06.526Z,0
2023-02-13T05:07:06.525Z,0
2023-02-13T05:08:06.536Z,0
2023-02-13T05:09:06.529Z,0
2023-02-13T05:10:06.532Z,0
2023-02-13T05:11:06.558Z,0
2023-02-13T05:12:06.530Z,0
2023-02-13T05:13:06.529Z,0
2023-02-13T05:14:06.528Z,0
2023-02-13T05:15:06.533Z,0
2023-02-13T05:16:06.564Z,0
2023-02-13T05:17:06.531Z,0
2023-02-13T05:18:06.530Z,0
2023-02-13T05:19:06.537Z,0
2023-02-13T05:20:06.534Z,0
2023-02-13T05:21:06.542Z,0
2023-02-13T05:22:06.535Z,0
2023-02-13T05:23:06.532Z,0
2023-02-13T05:24:06.544Z,0
2023-02-13T05:25:06.539Z,0
2023-02-13T05:26:06.550Z,0
2023-02-13T05:27:06.581Z,0
2023-02-13T05:28:06.610Z,0
2023-02-13T05:29:06.545Z,0
2023-02-13T05:30:06.544Z,0
2023-02-13T05:31:06.654Z,0
2023-02-13T05:32:06.587Z,0
2023-02-13T05:33:06.546Z,0
2023-02-13T05:34:06.551Z,0
2023-02-13T05:35:06.546Z,0
2023-02-13T05:36:06.549Z,0
2023-02-13T05:37:06.550Z,0
2023-02-13T05:38:06.550Z,0
2023-02-13T05:39:06.552Z,0
2023-02-13T05:40:06.551Z,0
2023-02-13T05:41:06.561Z,0
2023-02-13T05:42:06.553Z,0
2023-02-13T05:43:06.595Z,0
2023-02-13T05:44:06.550Z,0
2023-02-13T05:45:06.553Z,0
2023-02-13T05:46:06.609Z,0
2023-02-13T05:47:06.549Z,0
2023-02-13T05:48:06.556Z,0
2023-02-13T05:49:06.555Z,0
2023-02-13T05:50:06.556Z,0
2023-02-13T05:51:06.554Z,0
2023-02-13T05:52:06.561Z,0
2023-02-13T05:53:06.557Z,0
2023-02-13T05:54:06.561Z,2
2023-02-13T05:55:06.558Z,2
2023-02-13T05:56:06.556Z,2
2023-02-13T05:57:06.556Z,2
2023-02-13T05:58:06.556Z,2
2023-02-13T05:59:06.598Z,6
2023-02-13T06:00:06.557Z,6
2023-02-13T06:01:06.563Z,6
2023-02-13T06:02:06.558Z,6
2023-02-13T06:03:06.561Z,6
2023-02-13T06:04:06.643Z,15
2023-02-13T06:05:06.566Z,15
2023-02-13T06:06:06.562Z,15
2023-02-13T06:07:06.575Z,15
2023-02-13T06:08:06.563Z,15
2023-02-13T06:09:06.569Z,30
2023-02-13T06:10:06.575Z,30
2023-02-13T06:11:06.569Z,30
2023-02-13T06:12:06.572Z,30
2023-02-13T06:13:06.568Z,30
2023-02-13T06:14:06.571Z,56
2023-02-13T06:15:06.606Z,56
2023-02-13T06:16:06.573Z,56
2023-02-13T06:17:06.579Z,56
2023-02-13T06:18:06.573Z,56
2023-02-13T06:19:06.575Z,91
2023-02-13T06:20:06.580Z,97
2023-02-13T06:21:06.573Z,97
2023-02-13T06:22:06.578Z,97
2023-02-13T06:23:06.579Z,97
2023-02-13T06:24:06.579Z,97
2023-02-13T06:25:06.577Z,141
2023-02-13T06:26:06.576Z,141
2023-02-13T06:27:06.581Z,141
2023-02-13T06:28:06.622Z,141
2023-02-13T06:29:06.877Z,141
2023-02-13T06:30:06.589Z,190
2023-02-13T06:31:06.742Z,190
2023-02-13T06:32:06.587Z,190
2023-02-13T06:33:06.594Z,190
2023-02-13T06:34:06.589Z,190
2023-02-13T06:35:06.588Z,244
2023-02-13T06:36:06.589Z,244
2023-02-13T06:37:06.594Z,244
2023-02-13T06:38:06.594Z,244
2023-02-13T06:39:06.596Z,244
2023-02-13T06:40:06.593Z,302
2023-02-13T06:41:06.597Z,302
2023-02-13T06:42:06.612Z,302
2023-02-13T06:43:06.601Z,302
2023-02-13T06:44:06.601Z,302
2023-02-13T06:45:06.601Z,371
2023-02-13T06:46:06.600Z,371
2023-02-13T06:47:06.643Z,371
2023-02-13T06:48:06.602Z,371
2023-02-13T06:49:06.607Z,371
2023-02-13T06:50:06.606Z,474
2023-02-13T06:51:06.609Z,474
2023-02-13T06:52:06.618Z,474
2023-02-13T06:53:06.608Z,474
2023-02-13T06:54:06.613Z,474
2023-02-13T06:55:06.613Z,548
2023-02-13T06:56:06.617Z,548
2023-02-13T06:57:06.618Z,548
2023-02-13T06:58:06.637Z,548
2023-02-13T06:59:06.622Z,548
2023-02-13T07:00:06.619Z,615
2023-02-13T07:01:06.674Z,615
2023-02-13T07:02:06.624Z,615
2023-02-13T07:03:06.746Z,615
2023-02-13T07:04:06.628Z,615
2023-02-13T07:05:06.624Z,686
2023-02-13T07:06:06.635Z,686
2023-02-13T07:07:06.636Z,686
2023-02-13T07:08:06.628Z,686
2023-02-13T07:09:06.630Z,686
2023-02-13T07:10:06.626Z,759
2023-02-13T07:11:06.631Z,759
2023-02-13T07:12:06.633Z,759
2023-02-13T07:13:06.626Z,759
2023-02-13T07:14:06.634Z,759
2023-02-13T07:15:06.666Z,5180
2023-02-13T07:16:06.687Z,5180
2023-02-13T07:17:06.636Z,5180
2023-02-13T07:18:06.646Z,5180
2023-02-13T07:19:06.659Z,5180
2023-02-13T07:20:06.642Z,5653
2023-02-13T07:21:06.643Z,5653
2023-02-13T07:22:06.633Z,5653
2023-02-13T07:23:06.639Z,5653
2023-02-13T07:24:08.097Z,5653
2023-02-13T07:25:06.651Z,6204
2023-02-13T07:26:06.644Z,6204
2023-02-13T07:27:06.648Z,6204
2023-02-13T07:28:06.747Z,6204
2023-02-13T07:29:11.360Z,6204
2023-02-13T07:30:06.645Z,6549
2023-02-13T07:31:06.846Z,6549
2023-02-13T07:32:06.692Z,6549
2023-02-13T07:33:06.655Z,6549
2023-02-13T07:34:06.656Z,6549
2023-02-13T07:35:06.675Z,6830
2023-02-13T07:36:06.649Z,6830
2023-02-13T07:37:06.653Z,6973
2023-02-13T07:38:06.672Z,6973
2023-02-13T07:39:06.654Z,7015
2023-02-13T07:40:06.683Z,7076
2023-02-13T07:41:06.654Z,7076
2023-02-13T07:42:06.656Z,7076
2023-02-13T07:43:06.661Z,7076
2023-02-13T07:44:06.657Z,7076
2023-02-13T07:45:06.658Z,7379
2023-02-13T07:46:06.660Z,7379
2023-02-13T07:47:06.732Z,7379
2023-02-13T07:48:06.662Z,7379
2023-02-13T07:49:06.671Z,7379
2023-02-13T07:50:06.665Z,7626
2023-02-13T07:51:06.702Z,7626
2023-02-13T07:52:06.673Z,7626
2023-02-13T07:53:06.663Z,7626
2023-02-13T07:54:06.681Z,7626
2023-02-13T07:55:06.683Z,7890
2023-02-13T07:56:06.674Z,7890
2023-02-13T07:57:06.667Z,7890
2023-02-13T07:58:06.681Z,7890
2023-02-13T07:59:07.832Z,7890
2023-02-13T08:00:06.664Z,8126
2023-02-13T08:01:06.700Z,8126
2023-02-13T08:02:06.743Z,8126
2023-02-13T08:03:06.689Z,8126
2023-02-13T08:04:06.785Z,8126
2023-02-13T08:05:06.669Z,8320
2023-02-13T08:06:06.669Z,8320
2023-02-13T08:07:06.700Z,8320
2023-02-13T08:08:06.676Z,8320
2023-02-13T08:09:06.684Z,8320
2023-02-13T08:10:06.672Z,8472
2023-02-13T08:11:06.679Z,8472
2023-02-13T08:12:06.677Z,8472
2023-02-13T08:13:06.677Z,8472
2023-02-13T08:14:06.752Z,8472
2023-02-13T08:15:06.764Z,8472
2023-02-13T08:16:06.692Z,8472
2023-02-13T08:17:06.711Z,8472
2023-02-13T08:18:06.715Z,8472
2023-02-13T08:19:06.679Z,8472
2023-02-13T08:20:06.741Z,8720
2023-02-13T08:21:06.677Z,8720
2023-02-13T08:22:06.725Z,8720
2023-02-13T08:23:06.791Z,8720
2023-02-13T08:24:06.684Z,8720
2023-02-13T08:25:06.711Z,8760
2023-02-13T08:26:06.710Z,8760
2023-02-13T08:27:06.698Z,8760
2023-02-13T08:28:06.707Z,8760
2023-02-13T08:29:06.691Z,8760
2023-02-13T08:30:06.719Z,8839
2023-02-13T08:31:06.761Z,8839
2023-02-13T08:32:06.812Z,8839
2023-02-13T08:33:06.705Z,8839
2023-02-13T08:34:06.685Z,8839
2023-02-13T08:35:06.703Z,8978
2023-02-13T08:36:06.804Z,8978
2023-02-13T08:37:06.679Z,8978
2023-02-13T08:38:06.721Z,8978
2023-02-13T08:39:06.722Z,8978
2023-02-13T08:40:06.689Z,9070
2023-02-13T08:41:06.681Z,9070
2023-02-13T08:42:06.684Z,9070
2023-02-13T08:43:06.727Z,9070
2023-02-13T08:44:06.694Z,9070
2023-02-13T08:45:06.694Z,9057
2023-02-13T08:46:06.848Z,9066
2023-02-13T08:47:06.681Z,9066
2023-02-13T08:48:06.691Z,9066
2023-02-13T08:49:06.701Z,9066
2023-02-13T08:50:06.691Z,9066
2023-02-13T08:51:06.714Z,9137
2023-02-13T08:52:06.713Z,9137
2023-02-13T08:53:06.686Z,9137
2023-02-13T08:54:06.703Z,9137
2023-02-13T08:55:06.725Z,9137
2023-02-13T08:56:06.687Z,9120
2023-02-13T08:57:06.689Z,9120
2023-02-13T08:58:06.698Z,9120
2023-02-13T08:59:06.687Z,9120
2023-02-13T09:00:06.713Z,9120
2023-02-13T09:01:06.778Z,9179
2023-02-13T09:02:06.699Z,9179
2023-02-13T09:03:08.459Z,9179
2023-02-13T09:04:06.740Z,9179
2023-02-13T09:05:06.721Z,9179
2023-02-13T09:06:06.708Z,9217
2023-02-13T09:07:06.732Z,9217
2023-02-13T09:08:06.705Z,9217
2023-02-13T09:09:06.700Z,9217
2023-02-13T09:10:06.708Z,9217
2023-02-13T09:11:06.724Z,9277
2023-02-13T09:12:06.740Z,9277
2023-02-13T09:13:06.731Z,9277
2023-02-13T09:14:06.734Z,9277
2023-02-13T09:15:06.692Z,9277
2023-02-13T09:16:06.699Z,9318
2023-02-13T09:17:06.750Z,9318
2023-02-13T09:18:06.696Z,9318
2023-02-13T09:19:06.719Z,9318
2023-02-13T09:20:06.733Z,9307
2023-02-13T09:21:06.721Z,9307
2023-02-13T09:22:06.736Z,9307
2023-02-13T09:23:06.752Z,9307
2023-02-13T09:24:06.769Z,9307
2023-02-13T09:25:06.716Z,9348
2023-02-13T09:26:06.707Z,9348
2023-02-13T09:27:06.744Z,9348
2023-02-13T09:28:06.778Z,9348
2023-02-13T09:29:06.723Z,9348
2023-02-13T09:30:06.708Z,9399
2023-02-13T09:31:06.883Z,9399
2023-02-13T09:32:06.778Z,9361
2023-02-13T09:33:06.733Z,9361
2023-02-13T09:34:06.745Z,9361
2023-02-13T09:35:06.720Z,9361
2023-02-13T09:36:06.770Z,9361
2023-02-13T09:37:06.777Z,9397
2023-02-13T09:38:06.753Z,9397
2023-02-13T09:39:06.734Z,9415
2023-02-13T09:40:06.720Z,9415
2023-02-13T09:41:06.721Z,9415
2023-02-13T09:42:06.750Z,9415
2023-02-13T09:43:06.779Z,9415
2023-02-13T09:44:06.719Z,9430
2023-02-13T09:45:06.724Z,9430
2023-02-13T09:46:06.802Z,9430
2023-02-13T09:47:06.773Z,9430
2023-02-13T09:48:06.727Z,9430
2023-02-13T09:49:06.760Z,9462
2023-02-13T09:50:06.730Z,9462
2023-02-13T09:51:06.735Z,9462
2023-02-13T09:52:06.768Z,9462
2023-02-13T09:53:06.733Z,9462
2023-02-13T09:54:06.732Z,9541
2023-02-13T09:55:06.735Z,9541
2023-02-13T09:56:06.732Z,9541
2023-02-13T09:57:06.734Z,9541
2023-02-13T09:58:06.738Z,9541
2023-02-13T09:59:06.876Z,9554
2023-02-13T10:00:06.737Z,9554
2023-02-13T10:01:06.773Z,9554
2023-02-13T10:02:06.735Z,9554
2023-02-13T10:03:06.735Z,9554
2023-02-13T10:04:06.740Z,9596
2023-02-13T10:05:06.776Z,9596
2023-02-13T10:06:06.756Z,9596
2023-02-13T10:07:06.743Z,9596
2023-02-13T10:08:06.743Z,9596
2023-02-13T10:09:06.738Z,9627
2023-02-13T10:10:06.741Z,9627
2023-02-13T10:11:06.747Z,9627
2023-02-13T10:12:06.748Z,9627
2023-02-13T10:13:06.754Z,9627
2023-02-13T10:14:06.806Z,9532
2023-02-13T10:15:06.811Z,9532
2023-02-13T10:16:06.824Z,9532
2023-02-13T10:17:06.748Z,9532
2023-02-13T10:18:06.751Z,9532
2023-02-13T10:19:06.777Z,9683
2023-02-13T10:20:06.757Z,9683
2023-02-13T10:21:06.781Z,9727
2023-02-13T10:22:06.744Z,9712
2023-02-13T10:23:06.749Z,9712
2023-02-13T10:24:06.758Z,9712
2023-02-13T10:25:06.749Z,9712
2023-02-13T10:26:06.752Z,9712
2023-02-13T10:27:06.756Z,9732
2023-02-13T10:28:06.795Z,9732
2023-02-13T10:29:06.756Z,9732
2023-02-13T10:30:06.809Z,9732
2023-02-13T10:31:06.897Z,9732
2023-02-13T10:32:06.860Z,9784
2023-02-13T10:33:06.751Z,9784
2023-02-13T10:34:06.754Z,9784
2023-02-13T10:35:06.759Z,9784
2023-02-13T10:36:06.752Z,9784
2023-02-13T10:37:06.751Z,9784
2023-02-13T10:38:06.753Z,9784
2023-02-13T10:39:06.756Z,9784
2023-02-13T10:40:06.750Z,9784
2023-02-13T10:41:06.755Z,9784
2023-02-13T10:42:06.755Z,9784
2023-02-13T10:43:06.752Z,9784
2023-02-13T10:44:06.765Z,9784
2023-02-13T10:45:06.762Z,9784
2023-02-13T10:46:06.795Z,9784
2023-02-13T10:47:06.790Z,9811
2023-02-13T10:48:06.759Z,9811
2023-02-13T10:49:06.766Z,9811
2023-02-13T10:50:06.780Z,9811
2023-02-13T10:51:06.767Z,9811
2023-02-13T10:52:06.764Z,9845
2023-02-13T10:53:06.765Z,9845
2023-02-13T10:54:06.768Z,9845
2023-02-13T10:55:06.803Z,9845
2023-02-13T10:56:06.767Z,9845
2023-02-13T10:57:06.772Z,9833
2023-02-13T10:58:06.760Z,9833
2023-02-13T10:59:06.770Z,9833
2023-02-13T11:00:06.768Z,9833
2023-02-13T11:01:06.774Z,9840
2023-02-13T11:02:06.778Z,9840
2023-02-13T11:03:06.799Z,9840
2023-02-13T11:04:06.812Z,9840
2023-02-13T11:05:06.765Z,9840
2023-02-13T11:06:06.778Z,9879
2023-02-13T11:07:06.768Z,9879
2023-02-13T11:08:06.768Z,9879
2023-02-13T11:09:06.766Z,9872
2023-02-13T11:10:06.765Z,9872
2023-02-13T11:11:06.765Z,9872
2023-02-13T11:12:06.779Z,9872
2023-02-13T11:13:06.766Z,9872
2023-02-13T11:14:06.768Z,9881
2023-02-13T11:15:06.777Z,9881
2023-02-13T11:16:06.857Z,9881
2023-02-13T11:17:06.768Z,9881
2023-02-13T11:18:06.765Z,9879
2023-02-13T11:19:06.798Z,9879
2023-02-13T11:20:06.766Z,9879
2023-02-13T11:21:06.766Z,9924
2023-02-13T11:22:06.773Z,9913
2023-02-13T11:23:06.775Z,9913
2023-02-13T11:24:06.781Z,9913
2023-02-13T11:25:06.791Z,9913
2023-02-13T11:26:06.770Z,9913
2023-02-13T11:27:06.773Z,9913
2023-02-13T11:28:06.796Z,9913
2023-02-13T11:29:06.790Z,9913
2023-02-13T11:30:06.778Z,9913
2023-02-13T11:31:06.853Z,9913
2023-02-13T11:32:06.943Z,9966
2023-02-13T11:33:06.774Z,9966
2023-02-13T11:34:06.775Z,9966
2023-02-13T11:35:06.804Z,9966
2023-02-13T11:36:06.775Z,9966
2023-02-13T11:37:06.778Z,9988
2023-02-13T11:38:06.776Z,9988
2023-02-13T11:39:06.778Z,9988
2023-02-13T11:40:06.780Z,9988
2023-02-13T11:41:06.804Z,9988
2023-02-13T11:42:06.779Z,10014
2023-02-13T11:43:06.785Z,10014
2023-02-13T11:44:06.777Z,10014
2023-02-13T11:45:06.782Z,10014
2023-02-13T11:46:06.811Z,10014
2023-02-13T11:47:06.865Z,10025
2023-02-13T11:48:06.775Z,10025
2023-02-13T11:49:06.793Z,10025
2023-02-13T11:50:06.790Z,10044
2023-02-13T11:51:06.807Z,10044
2023-02-13T11:52:06.780Z,10044
2023-02-13T11:53:06.783Z,10044
2023-02-13T11:54:06.779Z,10053
2023-02-13T11:55:06.782Z,10053
2023-02-13T11:56:06.784Z,10065
2023-02-13T11:57:06.836Z,10079
2023-02-13T11:58:06.781Z,10037
2023-02-13T11:59:06.860Z,10037
2023-02-13T12:00:06.783Z,10037
2023-02-13T12:01:06.787Z,10039
2023-02-13T12:02:06.793Z,10039
2023-02-13T12:03:06.869Z,10039
2023-02-13T12:04:06.786Z,10044
2023-02-13T12:05:06.787Z,10044
2023-02-13T12:06:06.844Z,10058
2023-02-13T12:07:06.823Z,10032
2023-02-13T12:08:06.788Z,10039
2023-02-13T12:09:06.790Z,10039
2023-02-13T12:10:06.790Z,10065
2023-02-13T12:11:06.791Z,10069
2023-02-13T12:12:07.635Z,10072
2023-02-13T12:13:06.794Z,10072
2023-02-13T12:14:06.790Z,10072
2023-02-13T12:15:06.792Z,10072
2023-02-13T12:16:06.848Z,10072
2023-02-13T12:17:06.791Z,10002
2023-02-13T12:18:06.811Z,10014
2023-02-13T12:19:06.792Z,10021
2023-02-13T12:20:06.799Z,9975
2023-02-13T12:21:06.806Z,9975
2023-02-13T12:22:06.806Z,9975
2023-02-13T12:23:06.825Z,9913
2023-02-13T12:24:06.799Z,9913
2023-02-13T12:25:06.797Z,9913
2023-02-13T12:26:06.800Z,9911
2023-02-13T12:27:06.801Z,9886
2023-02-13T12:28:06.843Z,9872
2023-02-13T12:29:06.861Z,9861
2023-02-13T12:30:06.799Z,9851
2023-02-13T12:31:06.855Z,9851
2023-02-13T12:32:06.811Z,9851
2023-02-13T12:33:06.801Z,9851
2023-02-13T12:34:06.804Z,9851
2023-02-13T12:35:06.803Z,9784
2023-02-13T12:36:06.800Z,9784
2023-02-13T12:37:06.798Z,9784
2023-02-13T12:38:06.801Z,9734
2023-02-13T12:39:06.827Z,9734
2023-02-13T12:40:07.972Z,9705
2023-02-13T12:41:06.797Z,9687
2023-02-13T12:42:06.802Z,9687
2023-02-13T12:43:06.797Z,9656
2023-02-13T12:44:06.797Z,9656
2023-02-13T12:45:06.801Z,9656
2023-02-13T12:46:06.859Z,9656
2023-02-13T12:47:06.814Z,9656
2023-02-13T12:48:06.800Z,9656
2023-02-13T12:49:06.807Z,9579
2023-02-13T12:50:06.800Z,9579
2023-02-13T12:51:06.804Z,9579
2023-02-13T12:52:06.799Z,9530
2023-02-13T12:53:06.802Z,9504
2023-02-13T12:54:06.803Z,9504
2023-02-13T12:55:06.830Z,9504
2023-02-13T12:56:06.806Z,9504
2023-02-13T12:57:06.801Z,9504
2023-02-13T12:58:06.805Z,9412
2023-02-13T12:59:06.802Z,9412
2023-02-13T13:00:06.803Z,9367
2023-02-13T13:01:06.827Z,9367
2023-02-13T13:02:06.826Z,9322
2023-02-13T13:03:06.817Z,9335
2023-02-13T13:04:06.810Z,9335
2023-02-13T13:05:06.807Z,9335
2023-02-13T13:06:11.952Z,9335
2023-02-13T13:07:06.808Z,9249
2023-02-13T13:08:06.811Z,9249
2023-02-13T13:09:06.809Z,9249
2023-02-13T13:10:06.833Z,9249
2023-02-13T13:11:06.852Z,9249
2023-02-13T13:12:06.815Z,9164
2023-02-13T13:13:06.812Z,9164
2023-02-13T13:14:06.807Z,9164
2023-02-13T13:15:06.810Z,9164
2023-02-13T13:16:06.817Z,9164
2023-02-13T13:17:06.817Z,9112
2023-02-13T13:18:06.812Z,9112
2023-02-13T13:19:06.812Z,9112
2023-02-13T13:20:06.813Z,9112
2023-02-13T13:21:06.825Z,9112
2023-02-13T13:22:06.818Z,9041
2023-02-13T13:23:06.819Z,9041
2023-02-13T13:24:06.815Z,9041
2023-02-13T13:25:06.818Z,9041
2023-02-13T13:26:06.811Z,9041
2023-02-13T13:27:06.841Z,8935
2023-02-13T13:28:06.820Z,8935
2023-02-13T13:29:06.809Z,8935
2023-02-13T13:30:06.895Z,8935
2023-02-13T13:31:06.913Z,8935
2023-02-13T13:32:06.845Z,8851
2023-02-13T13:33:06.819Z,8851
2023-02-13T13:34:06.813Z,8851
2023-02-13T13:35:06.812Z,8851
2023-02-13T13:36:06.811Z,8851
2023-02-13T13:37:06.813Z,8786
2023-02-13T13:38:06.833Z,8758
2023-02-13T13:39:06.809Z,8758
2023-02-13T13:40:06.816Z,8698
2023-02-13T13:41:06.811Z,8662
2023-02-13T13:42:06.813Z,8650
2023-02-13T13:43:06.853Z,8660
2023-02-13T13:44:06.814Z,8557
2023-02-13T13:45:06.827Z,8566
2023-02-13T13:46:07.000Z,8553
2023-02-13T13:47:06.821Z,8553
2023-02-13T13:48:06.823Z,8553
2023-02-13T13:49:06.857Z,8553
2023-02-13T13:50:06.813Z,8529
2023-02-13T13:51:06.813Z,8529
2023-02-13T13:52:06.814Z,8529
2023-02-13T13:53:06.815Z,8529
2023-02-13T13:54:06.814Z,8529
2023-02-13T13:55:06.813Z,8529
2023-02-13T13:56:06.813Z,8492